createdAt,value
2023-01-15T00:00:06.989Z,14.62
2023-01-15T00:02:35.346Z,14.72
2023-01-15T00:05:05.649Z,14.69
2023-01-15T00:07:34.206Z,14.80
2023-01-15T00:10:02.505Z,14.42
2023-01-15T00:12:30.822Z,14.87
2023-01-15T00:14:59.159Z,14.88
2023-01-15T00:17:27.467Z,14.69
2023-01-15T00:19:55.881Z,15.11
2023-01-15T00:22:25.627Z,14.72
2023-01-15T00:25:11.547Z,15.08
2023-01-15T00:27:39.998Z,15.00
2023-01-15T00:30:10.566Z,15.10
2023-01-15T00:32:39.860Z,15.37
2023-01-15T00:35:09.354Z,14.51
2023-01-15T00:37:39.020Z,14.54
2023-01-15T00:40:08.214Z,14.17
2023-01-15T00:42:36.727Z,14.57
2023-01-15T00:45:10.236Z,13.91
2023-01-15T00:47:39.171Z,14.69
2023-01-15T00:50:09.259Z,13.99
2023-01-15T00:52:38.922Z,14.67
2023-01-15T00:55:09.041Z,14.80
2023-01-15T00:57:37.290Z,14.56
2023-01-15T01:00:06.901Z,14.51
2023-01-15T01:02:35.795Z,14.04
2023-01-15T01:05:04.408Z,14.25
2023-01-15T01:07:32.758Z,14.24
2023-01-15T01:10:02.426Z,14.58
2023-01-15T01:12:30.747Z,14.36
2023-01-15T01:14:59.094Z,14.16
2023-01-15T01:17:27.580Z,14.40
2023-01-15T01:19:55.943Z,14.37
2023-01-15T01:22:24.289Z,14.26
2023-01-15T01:24:52.606Z,14.28
2023-01-15T01:27:22.297Z,14.45
2023-01-15T01:29:50.643Z,13.83
2023-01-15T01:32:18.968Z,13.73
2023-01-15T01:34:47.266Z,13.95
2023-01-15T01:37:15.791Z,13.77
2023-01-15T01:39:44.177Z,13.52
2023-01-15T01:42:14.022Z,13.90
2023-01-15T01:45:03.218Z,14.34
2023-01-15T01:47:32.840Z,13.89
2023-01-15T01:50:04.804Z,13.88
2023-01-15T01:52:36.965Z,13.98
2023-01-15T01:55:06.157Z,13.78
2023-01-15T01:57:34.506Z,14.02
2023-01-15T02:00:07.023Z,13.99
2023-01-15T02:02:36.308Z,14.07
2023-01-15T02:05:05.722Z,14.06
2023-01-15T02:07:34.986Z,14.14
2023-01-15T02:10:03.370Z,13.76
2023-01-15T02:12:36.283Z,14.10
2023-01-15T02:15:12.689Z,12.80
2023-01-15T02:17:45.523Z,13.97
2023-01-15T02:20:24.025Z,13.93
2023-01-15T02:23:02.977Z,13.49
2023-01-15T02:25:35.166Z,13.46
2023-01-15T02:28:08.853Z,13.64
2023-01-15T02:30:41.155Z,13.87
2023-01-15T02:33:12.377Z,13.81
2023-01-15T02:35:44.308Z,13.74
2023-01-15T02:38:16.447Z,13.73
2023-01-15T02:40:44.918Z,13.93
2023-01-15T02:43:15.491Z,13.43
2023-01-15T02:45:45.567Z,13.16
2023-01-15T02:48:15.976Z,13.26
2023-01-15T02:50:47.288Z,13.45
2023-01-15T02:53:19.583Z,13.43
2023-01-15T02:55:50.746Z,13.24
2023-01-15T02:58:23.506Z,13.42
2023-01-15T03:00:53.721Z,12.75
2023-01-15T03:03:25.848Z,13.45
2023-01-15T03:06:00.511Z,13.60
2023-01-15T03:08:28.876Z,13.16
2023-01-15T03:11:05.997Z,13.04
2023-01-15T03:13:45.243Z,13.70
2023-01-15T03:16:35.911Z,13.76
2023-01-15T03:19:06.112Z,13.52
2023-01-15T03:21:41.022Z,13.53
2023-01-15T03:24:11.590Z,14.02
2023-01-15T03:26:39.892Z,13.70
2023-01-15T03:29:10.428Z,13.69
2023-01-15T03:31:39.143Z,13.94
2023-01-15T03:34:07.945Z,14.09
2023-01-15T03:36:36.313Z,13.75
2023-01-15T03:39:05.006Z,13.76
2023-01-15T03:41:43.932Z,14.35
2023-01-15T03:44:17.472Z,14.30
2023-01-15T03:47:02.823Z,13.85
2023-01-15T03:49:40.072Z,14.17
2023-01-15T03:52:13.791Z,14.37
2023-01-15T03:54:46.172Z,14.51
2023-01-15T03:57:17.202Z,14.38
2023-01-15T03:59:51.297Z,14.04
2023-01-15T04:02:20.729Z,14.40
2023-01-15T04:04:49.685Z,14.55
2023-01-15T04:07:18.103Z,13.69
2023-01-15T04:09:46.445Z,14.30
2023-01-15T04:12:14.718Z,14.44
2023-01-15T04:14:43.006Z,14.56
2023-01-15T04:17:12.670Z,13.85
2023-01-15T04:19:40.906Z,14.35
2023-01-15T04:22:10.579Z,14.60
2023-01-15T04:24:39.224Z,14.75
2023-01-15T04:27:07.475Z,14.61
2023-01-15T04:29:35.764Z,14.42
2023-01-15T04:32:04.295Z,14.94
2023-01-15T04:34:35.196Z,15.02
2023-01-15T04:37:03.476Z,14.43
2023-01-15T04:39:31.913Z,14.54
2023-01-15T04:42:17.971Z,14.65
2023-01-15T04:44:46.231Z,14.24
2023-01-15T04:47:14.561Z,14.46
2023-01-15T04:49:44.160Z,14.65
2023-01-15T04:52:12.402Z,14.76
2023-01-15T04:54:40.665Z,14.82
2023-01-15T04:57:09.329Z,14.98
2023-01-15T04:59:37.561Z,15.19
2023-01-15T05:02:06.908Z,14.17
2023-01-15T05:04:35.968Z,14.68
2023-01-15T05:07:06.344Z,14.25
2023-01-15T05:09:34.650Z,14.75
2023-01-15T05:12:03.178Z,14.46
2023-01-15T05:14:31.508Z,14.83
2023-01-15T05:16:59.794Z,14.36
2023-01-15T05:19:28.076Z,14.57
2023-01-15T05:21:56.417Z,14.99
2023-01-15T05:24:26.031Z,15.03
2023-01-15T05:26:55.248Z,14.99
2023-01-15T05:29:23.595Z,14.80
2023-01-15T05:31:51.841Z,15.12
2023-01-15T05:34:20.167Z,14.79
2023-01-15T05:36:48.446Z,14.99
2023-01-15T05:39:16.794Z,14.86
2023-01-15T05:41:52.865Z,14.64
2023-01-15T05:44:24.255Z,14.99
2023-01-15T05:46:55.022Z,15.03
2023-01-15T05:49:25.714Z,14.32
2023-01-15T05:51:54.836Z,14.68
2023-01-15T05:54:24.997Z,14.39
2023-01-15T05:56:55.181Z,14.55
2023-01-15T05:59:25.868Z,14.79
2023-01-15T06:01:53.966Z,14.94
2023-01-15T06:04:22.339Z,14.48
2023-01-15T06:06:51.600Z,15.04
2023-01-15T06:09:20.453Z,14.96
2023-01-15T06:11:48.704Z,14.92
2023-01-15T06:14:18.472Z,14.66
2023-01-15T06:16:47.064Z,13.62
2023-01-15T06:19:15.677Z,13.93
2023-01-15T06:21:44.493Z,14.16
2023-01-15T06:24:16.573Z,14.47
2023-01-15T06:26:44.995Z,14.74
2023-01-15T06:29:17.637Z,14.89
2023-01-15T06:31:48.154Z,14.60
2023-01-15T06:34:16.638Z,14.90
2023-01-15T06:36:45.105Z,15.16
2023-01-15T06:39:13.503Z,15.48
2023-01-15T06:41:59.472Z,15.43
2023-01-15T06:44:45.649Z,15.50
2023-01-15T06:47:23.881Z,15.69
2023-01-15T06:49:54.266Z,15.83
2023-01-15T06:52:23.138Z,15.86
2023-01-15T06:54:51.916Z,15.92
2023-01-15T06:57:20.342Z,15.98
2023-01-15T06:59:48.889Z,16.40
2023-01-15T07:02:19.089Z,16.32
2023-01-15T07:04:47.939Z,15.75
2023-01-15T07:07:16.857Z,16.25
2023-01-15T07:09:45.434Z,16.25
2023-01-15T07:12:13.891Z,15.97
2023-01-15T07:14:42.334Z,16.34
2023-01-15T07:17:10.712Z,16.38
2023-01-15T07:19:40.491Z,16.65
2023-01-15T07:22:10.275Z,16.19
2023-01-15T07:24:38.573Z,16.77
2023-01-15T07:27:07.089Z,16.25
2023-01-15T07:29:35.430Z,16.68
2023-01-15T07:32:03.681Z,16.52
2023-01-15T07:34:31.948Z,16.67
2023-01-15T07:37:01.538Z,16.70
2023-01-15T07:39:31.629Z,16.46
2023-01-15T07:42:17.502Z,16.79
2023-01-15T07:45:03.679Z,16.86
2023-01-15T07:47:49.549Z,16.51
2023-01-15T07:50:19.812Z,16.62
2023-01-15T07:52:51.377Z,16.41
2023-01-15T07:55:21.273Z,16.73
2023-01-15T07:57:49.579Z,16.74
2023-01-15T08:00:21.884Z,16.68
2023-01-15T08:02:51.078Z,16.71
2023-01-15T08:05:19.754Z,17.04
2023-01-15T08:07:50.498Z,16.59
2023-01-15T08:10:19.698Z,17.17
2023-01-15T08:13:10.934Z,16.65
2023-01-15T08:15:40.862Z,16.84
2023-01-15T08:18:09.105Z,17.05
2023-01-15T08:20:37.721Z,16.82
2023-01-15T08:23:07.326Z,16.60
2023-01-15T08:25:35.590Z,17.24
2023-01-15T08:28:04.241Z,16.93
2023-01-15T08:30:32.473Z,16.88
2023-01-15T08:33:03.105Z,16.78
2023-01-15T08:35:31.253Z,17.17
2023-01-15T08:37:59.464Z,17.07
2023-01-15T08:40:29.123Z,17.07
2023-01-15T08:42:57.453Z,16.96
2023-01-15T08:45:25.779Z,17.44
2023-01-15T08:47:56.232Z,17.24
2023-01-15T08:50:24.736Z,17.09
2023-01-15T08:52:53.133Z,17.22
2023-01-15T08:55:21.396Z,17.15
2023-01-15T08:57:51.916Z,17.14
2023-01-15T09:00:21.767Z,17.16
2023-01-15T09:02:50.399Z,17.79
2023-01-15T09:05:18.917Z,17.59
2023-01-15T09:07:47.322Z,17.56
2023-01-15T09:10:15.700Z,17.44
2023-01-15T09:12:44.098Z,17.79
2023-01-15T09:15:13.741Z,17.76
2023-01-15T09:17:42.071Z,17.79
2023-01-15T09:20:13.097Z,18.01
2023-01-15T09:22:41.454Z,17.42
2023-01-15T09:25:10.171Z,17.99
2023-01-15T09:27:38.773Z,17.83
2023-01-15T09:30:08.226Z,18.15
2023-01-15T09:32:38.058Z,17.55
2023-01-15T09:35:06.953Z,17.43
2023-01-15T09:37:35.239Z,18.17
2023-01-15T09:40:04.296Z,17.67
2023-01-15T09:42:43.380Z,18.02
2023-01-15T09:45:19.376Z,17.59
2023-01-15T09:48:13.089Z,17.98
2023-01-15T09:50:50.043Z,17.80
2023-01-15T09:53:30.743Z,17.64
2023-01-15T09:55:58.812Z,17.78
2023-01-15T09:58:32.710Z,17.18
2023-01-15T10:01:01.221Z,16.98
2023-01-15T10:03:37.408Z,16.29
2023-01-15T10:06:11.380Z,15.08
2023-01-15T10:08:42.435Z,14.68
2023-01-15T10:11:44.502Z,14.79
2023-01-15T10:14:16.245Z,14.23
2023-01-15T10:16:44.526Z,14.22
2023-01-15T10:19:14.322Z,13.71
2023-01-15T10:21:51.103Z,13.68
2023-01-15T10:24:20.810Z,13.58
2023-01-15T10:26:55.235Z,13.30
2023-01-15T10:29:29.861Z,13.18
2023-01-15T10:32:02.423Z,13.28
2023-01-15T10:35:00.389Z,13.01
2023-01-15T10:37:32.047Z,12.71
2023-01-15T10:40:15.832Z,12.33
2023-01-15T10:42:52.212Z,12.72
2023-01-15T10:45:22.972Z,12.63
2023-01-15T10:47:53.965Z,12.68
2023-01-15T10:50:25.195Z,12.75
2023-01-15T10:53:02.594Z,12.23
2023-01-15T10:55:34.817Z,12.92
2023-01-15T10:58:10.688Z,12.91
2023-01-15T11:00:39.916Z,12.71
2023-01-15T11:03:15.206Z,12.19
2023-01-15T11:05:46.643Z,12.51
2023-01-15T11:09:05.963Z,12.22
2023-01-15T11:11:18.091Z,12.39
2023-01-15T11:14:11.670Z,12.04
2023-01-15T11:16:58.698Z,11.92
2023-01-15T11:19:38.538Z,12.00
2023-01-15T11:22:15.362Z,12.27
2023-01-15T11:24:48.789Z,12.24
2023-01-15T11:27:19.790Z,12.07
2023-01-15T11:29:53.037Z,11.83
2023-01-15T11:32:26.753Z,12.28
2023-01-15T11:34:55.723Z,12.33
2023-01-15T11:37:25.615Z,11.85
2023-01-15T11:39:55.602Z,12.16
2023-01-15T11:42:41.910Z,12.08
2023-01-15T11:45:32.807Z,11.53
2023-01-15T11:48:18.697Z,11.07
2023-01-15T11:50:53.064Z,10.83
2023-01-15T11:53:25.300Z,11.09
2023-01-15T11:55:56.315Z,11.22
2023-01-15T11:58:25.456Z,11.26
2023-01-15T12:00:55.835Z,11.32
2023-01-15T12:03:26.870Z,10.80
2023-01-15T12:05:59.613Z,10.87
2023-01-15T12:08:39.374Z,11.06
2023-01-15T12:11:26.275Z,10.67
2023-01-15T12:14:06.501Z,10.30
2023-01-15T12:16:37.718Z,10.51
2023-01-15T12:19:11.676Z,10.89
2023-01-15T12:21:53.287Z,10.59
2023-01-15T12:24:54.318Z,10.55
2023-01-15T12:27:44.412Z,10.34
2023-01-15T12:30:22.831Z,11.02
2023-01-15T12:32:56.073Z,11.27
2023-01-15T12:35:29.243Z,10.96
2023-01-15T12:38:00.162Z,10.62
2023-01-15T12:40:34.609Z,11.00
2023-01-15T12:43:20.484Z,11.09
2023-01-15T12:45:50.984Z,10.93
2023-01-15T12:48:24.105Z,10.83
2023-01-15T12:50:53.990Z,11.26
2023-01-15T12:53:25.174Z,11.35
2023-01-15T12:55:57.534Z,11.29
2023-01-15T12:58:35.741Z,11.01
2023-01-15T13:01:08.005Z,10.65
2023-01-15T13:03:47.569Z,10.82
2023-01-15T13:06:17.002Z,11.12
2023-01-15T13:08:52.456Z,11.29
2023-01-15T13:11:22.254Z,11.58
2023-01-15T13:13:58.930Z,11.16
2023-01-15T13:16:37.680Z,11.11
2023-01-15T13:19:18.712Z,11.19
2023-01-15T13:21:51.646Z,11.06
2023-01-15T13:24:35.601Z,10.90
2023-01-15T13:27:21.349Z,10.84
2023-01-15T13:30:01.616Z,10.79
2023-01-15T13:32:31.349Z,11.16
2023-01-15T13:35:03.488Z,10.59
2023-01-15T13:37:33.932Z,10.09
2023-01-15T13:40:05.440Z,10.31
2023-01-15T13:42:36.050Z,10.35
2023-01-15T13:45:06.945Z,10.11
2023-01-15T13:47:36.927Z,10.27
2023-01-15T13:50:07.844Z,10.39
2023-01-15T13:52:37.709Z,9.89
2023-01-15T13:55:12.125Z,9.77
2023-01-15T13:57:43.749Z,9.59
2023-01-15T14:00:28.797Z,9.34
2023-01-15T14:02:58.703Z,9.61
2023-01-15T14:05:31.105Z,9.65
2023-01-15T14:08:01.432Z,9.57
2023-01-15T14:10:40.541Z,9.57
2023-01-15T14:13:33.707Z,9.48
2023-01-15T14:16:10.917Z,10.03
2023-01-15T14:19:00.308Z,10.17
2023-01-15T14:21:40.838Z,10.39
2023-01-15T14:24:46.660Z,10.05
2023-01-15T14:27:23.361Z,9.90
2023-01-15T14:30:11.129Z,10.11
2023-01-15T14:32:49.597Z,9.67
2023-01-15T14:35:21.519Z,9.01
2023-01-15T14:37:53.623Z,9.27
2023-01-15T14:40:23.699Z,9.28
2023-01-15T14:43:04.804Z,8.90
2023-01-15T14:45:36.928Z,9.04
2023-01-15T14:48:06.492Z,9.10
2023-01-15T14:50:38.944Z,8.80
2023-01-15T14:53:23.641Z,8.87
2023-01-15T14:55:54.696Z,9.33
2023-01-15T14:58:33.217Z,9.10
2023-01-15T15:01:14.443Z,9.15
2023-01-15T15:03:49.409Z,9.24
2023-01-15T15:06:18.238Z,8.81
2023-01-15T15:08:47.277Z,9.09
2023-01-15T15:11:34.233Z,9.44
2023-01-15T15:14:03.549Z,8.92
2023-01-15T15:16:33.531Z,9.11
2023-01-15T15:19:05.618Z,9.25
2023-01-15T15:21:36.697Z,9.63
2023-01-15T15:24:11.982Z,9.56
2023-01-15T15:26:40.924Z,10.01
2023-01-15T15:29:13.862Z,9.32
2023-01-15T15:31:45.726Z,9.41
2023-01-15T15:34:18.220Z,9.41
2023-01-15T15:36:47.132Z,9.71
2023-01-15T15:39:19.584Z,9.51
2023-01-15T15:42:08.115Z,9.44
2023-01-15T15:44:59.226Z,9.43
2023-01-15T15:47:46.386Z,9.43
2023-01-15T15:50:21.461Z,9.99
2023-01-15T15:52:50.234Z,9.24
2023-01-15T15:55:19.903Z,9.81
2023-01-15T15:57:52.329Z,9.90
2023-01-15T16:00:24.678Z,9.85
2023-01-15T16:02:54.542Z,9.64
2023-01-15T16:05:25.137Z,9.11
2023-01-15T16:07:57.511Z,9.29
2023-01-15T16:10:27.637Z,8.89
2023-01-15T16:12:57.593Z,9.58
2023-01-15T16:15:29.628Z,9.07
2023-01-15T16:18:00.306Z,8.71
2023-01-15T16:20:28.470Z,9.13
2023-01-15T16:22:58.576Z,9.11
2023-01-15T16:25:28.276Z,9.62
2023-01-15T16:27:56.592Z,9.46
2023-01-15T16:30:24.949Z,8.97
2023-01-15T16:32:54.289Z,9.19
2023-01-15T16:35:25.789Z,9.09
2023-01-15T16:37:56.429Z,9.27
2023-01-15T16:40:26.336Z,9.28
2023-01-15T16:43:07.245Z,9.45
2023-01-15T16:45:37.831Z,9.07
2023-01-15T16:48:22.972Z,8.86
2023-01-15T16:50:53.267Z,8.69
2023-01-15T16:53:33.287Z,9.39
2023-01-15T16:56:01.707Z,8.61
2023-01-15T16:58:37.422Z,9.18
2023-01-15T17:01:26.585Z,8.72
2023-01-15T17:03:55.353Z,9.12
2023-01-15T17:06:27.625Z,9.15
2023-01-15T17:08:57.074Z,8.56
2023-01-15T17:11:27.339Z,8.56
2023-01-15T17:14:09.868Z,9.18
2023-01-15T17:16:38.149Z,8.84
2023-01-15T17:19:08.188Z,9.22
2023-01-15T17:21:38.866Z,9.20
2023-01-15T17:24:08.269Z,9.50
2023-01-15T17:26:36.776Z,9.20
2023-01-15T17:29:05.025Z,9.07
2023-01-15T17:31:36.277Z,9.20
2023-01-15T17:34:05.104Z,9.13
2023-01-15T17:36:34.628Z,9.18
2023-01-15T17:39:04.520Z,8.98
2023-01-15T17:41:32.798Z,9.10
2023-01-15T17:44:01.085Z,9.55
2023-01-15T17:46:29.802Z,9.28
2023-01-15T17:48:58.189Z,8.93
2023-01-15T17:51:27.023Z,9.02
2023-01-15T17:53:55.263Z,9.09
2023-01-15T17:56:43.196Z,9.31
2023-01-15T17:59:29.228Z,8.89
2023-01-15T18:02:15.305Z,9.41
2023-01-15T18:05:03.796Z,8.85
2023-01-15T18:07:35.886Z,8.79
2023-01-15T18:10:06.619Z,9.14
2023-01-15T18:12:36.268Z,8.75
2023-01-15T18:15:05.240Z,8.84
2023-01-15T18:17:33.582Z,8.84
2023-01-15T18:20:01.902Z,8.69
2023-01-15T18:22:30.781Z,8.65
2023-01-15T18:24:59.071Z,8.96
2023-01-15T18:27:30.171Z,9.41
2023-01-15T18:30:00.333Z,9.27
2023-01-15T18:32:29.934Z,8.96
2023-01-15T18:34:58.338Z,9.25
2023-01-15T18:37:26.607Z,9.38
2023-01-15T18:39:54.904Z,9.19
2023-01-15T18:42:40.690Z,8.97
2023-01-15T18:45:37.260Z,8.76
2023-01-15T18:48:05.781Z,9.39
2023-01-15T18:50:34.119Z,9.56
2023-01-15T18:53:02.339Z,9.21
2023-01-15T18:55:30.605Z,9.21
2023-01-15T18:57:58.937Z,9.23
2023-01-15T19:00:28.639Z,9.23
2023-01-15T19:02:56.957Z,9.62
2023-01-15T19:05:25.672Z,9.43
2023-01-15T19:07:54.202Z,9.04
2023-01-15T19:10:22.949Z,9.23
2023-01-15T19:12:51.227Z,9.07
2023-01-15T19:15:38.903Z,9.23
2023-01-15T19:18:29.653Z,9.18
2023-01-15T19:20:57.732Z,9.34
2023-01-15T19:23:25.999Z,8.68
2023-01-15T19:25:54.238Z,8.91
2023-01-15T19:28:22.731Z,9.00
2023-01-15T19:31:12.665Z,9.30
2023-01-15T19:33:42.327Z,8.97
2023-01-15T19:36:11.163Z,8.97
2023-01-15T19:38:40.312Z,9.44
2023-01-15T19:41:29.857Z,9.07
2023-01-15T19:44:15.832Z,9.01
2023-01-15T19:47:01.736Z,8.97
2023-01-15T19:49:53.909Z,9.41
2023-01-15T19:52:37.996Z,8.83
2023-01-15T19:55:08.759Z,9.04
2023-01-15T19:57:37.004Z,8.71
2023-01-15T20:00:06.131Z,8.84
2023-01-15T20:02:34.823Z,8.93
2023-01-15T20:05:05.324Z,8.39
2023-01-15T20:07:33.992Z,8.53
2023-01-15T20:10:02.323Z,8.19
2023-01-15T20:12:48.180Z,8.53
2023-01-15T20:15:16.760Z,8.51
2023-01-15T20:17:45.015Z,8.82
2023-01-15T20:20:15.003Z,8.54
2023-01-15T20:22:43.429Z,8.39
2023-01-15T20:25:11.827Z,8.72
2023-01-15T20:27:41.214Z,8.97
2023-01-15T20:30:12.750Z,8.64
2023-01-15T20:32:42.388Z,8.78
2023-01-15T20:35:12.576Z,9.24
2023-01-15T20:37:42.516Z,9.02
2023-01-15T20:40:12.129Z,9.03
2023-01-15T20:42:57.962Z,8.35
2023-01-15T20:45:26.298Z,8.78
2023-01-15T20:48:12.295Z,8.36
2023-01-15T20:50:42.982Z,8.88
2023-01-15T20:53:12.431Z,8.70
2023-01-15T20:55:55.535Z,8.75
2023-01-15T20:58:25.693Z,8.45
2023-01-15T21:00:56.421Z,9.11
2023-01-15T21:03:24.774Z,8.73
2023-01-15T21:05:57.551Z,9.04
2023-01-15T21:08:27.669Z,9.34
2023-01-15T21:10:56.360Z,9.30
2023-01-15T21:13:24.733Z,9.15
2023-01-15T21:15:58.009Z,9.48
2023-01-15T21:18:26.728Z,8.97
2023-01-15T21:20:55.173Z,9.10
2023-01-15T21:23:23.569Z,8.66
2023-01-15T21:26:00.171Z,8.48
2023-01-15T21:28:28.605Z,8.56
2023-01-15T21:30:56.940Z,8.70
2023-01-15T21:33:26.080Z,8.93
2023-01-15T21:35:54.489Z,8.39
2023-01-15T21:38:22.947Z,8.92
2023-01-15T21:40:51.300Z,9.09
2023-01-15T21:46:27.686Z,8.41
2023-01-15T21:48:56.095Z,9.02
2023-01-15T21:51:24.495Z,9.02
2023-01-15T21:53:52.819Z,8.86
2023-01-15T21:56:21.330Z,9.27
2023-01-15T21:58:51.045Z,8.49
2023-01-15T22:01:20.847Z,8.94
2023-01-15T22:03:49.325Z,8.87
2023-01-15T22:06:17.624Z,9.26
2023-01-15T22:08:45.972Z,9.30
2023-01-15T22:11:14.340Z,8.88
2023-01-15T22:13:42.782Z,8.85
2023-01-15T22:16:12.470Z,8.63
2023-01-15T22:18:41.023Z,7.90
2023-01-15T22:21:15.279Z,8.70
2023-01-15T22:23:44.061Z,8.50
2023-01-15T22:26:17.749Z,8.46
2023-01-15T22:28:46.191Z,8.45
2023-01-15T22:31:17.889Z,8.45
2023-01-15T22:33:46.836Z,8.42
2023-01-15T22:36:17.001Z,8.21
2023-01-15T22:38:46.883Z,8.49
2023-01-15T22:41:15.227Z,8.62
2023-01-15T22:43:43.589Z,7.94
2023-01-15T22:46:12.572Z,7.81
2023-01-15T22:48:42.389Z,8.41
2023-01-15T22:51:10.662Z,8.14
2023-01-15T22:53:38.979Z,8.12
2023-01-15T22:56:08.227Z,8.42
2023-01-15T22:58:40.060Z,8.71
2023-01-15T23:01:08.997Z,8.67
2023-01-15T23:03:37.466Z,8.54
2023-01-15T23:06:08.711Z,8.54
2023-01-15T23:08:37.331Z,8.49
2023-01-15T23:11:10.595Z,8.83
2023-01-15T23:13:39.126Z,8.61
2023-01-15T23:16:07.909Z,8.52
2023-01-15T23:18:36.928Z,8.01
2023-01-15T23:21:07.482Z,8.26
2023-01-15T23:23:36.056Z,8.17
2023-01-15T23:26:06.179Z,8.33
2023-01-15T23:28:34.601Z,8.49
2023-01-15T23:31:03.090Z,7.99
2023-01-15T23:33:31.534Z,8.24
2023-01-15T23:36:00.261Z,8.52
2023-01-15T23:38:30.048Z,8.77
2023-01-15T23:40:58.410Z,8.72
2023-01-15T23:43:44.234Z,8.91
2023-01-15T23:46:35.700Z,8.94
2023-01-15T23:49:06.079Z,9.68
2023-01-15T23:51:34.848Z,9.63
2023-01-15T23:54:05.488Z,9.48
2023-01-15T23:56:33.704Z,9.39
2023-01-15T23:59:01.915Z,9.48
